sensor_id;sensor_type;location;lat;lon;timestamp;P1;durP1;ratioP1;P2;durP2;ratioP2
32475;SDS011;18929;48.008;10.882;2022-07-23T00:00:39;8.27;;;7.28;;
32475;SDS011;18929;48.008;10.882;2022-07-23T00:03:06;9.90;;;7.03;;
32475;SDS011;18929;48.008;10.882;2022-07-23T00:05:33;9.57;;;7.00;;
32475;SDS011;18929;48.008;10.882;2022-07-23T00:08:00;8.60;;;7.32;;
32475;SDS011;18929;48.008;10.882;2022-07-23T00:10:28;8.30;;;6.90;;
32475;SDS011;18929;48.008;10.882;2022-07-23T00:12:55;8.80;;;7.28;;
32475;SDS011;18929;48.008;10.882;2022-07-23T00:15:22;9.65;;;6.72;;
32475;SDS011;18929;48.008;10.882;2022-07-23T00:17:49;8.00;;;7.18;;
32475;SDS011;18929;48.008;10.882;2022-07-23T00:20:17;11.00;;;7.32;;
32475;SDS011;18929;48.008;10.882;2022-07-23T00:22:47;11.02;;;7.22;;
32475;SDS011;18929;48.008;10.882;2022-07-23T00:25:15;9.27;;;6.75;;
32475;SDS011;18929;48.008;10.882;2022-07-23T00:27:43;8.52;;;6.80;;
32475;SDS011;18929;48.008;10.882;2022-07-23T00:30:11;13.30;;;8.02;;
32475;SDS011;18929;48.008;10.882;2022-07-23T00:32:45;10.82;;;7.10;;
32475;SDS011;18929;48.008;10.882;2022-07-23T00:35:13;16.25;;;6.80;;
32475;SDS011;18929;48.008;10.882;2022-07-23T00:37:41;8.35;;;6.07;;
32475;SDS011;18929;48.008;10.882;2022-07-23T00:40:10;9.30;;;6.88;;
32475;SDS011;18929;48.008;10.882;2022-07-23T00:42:37;8.55;;;5.32;;
32475;SDS011;18929;48.008;10.882;2022-07-23T00:45:07;12.32;;;6.00;;
32475;SDS011;18929;48.008;10.882;2022-07-23T00:47:34;11.23;;;6.35;;
32475;SDS011;18929;48.008;10.882;2022-07-23T00:50:02;10.38;;;5.88;;
32475;SDS011;18929;48.008;10.882;2022-07-23T00:52:30;11.85;;;6.05;;
32475;SDS011;18929;48.008;10.882;2022-07-23T00:54:58;10.52;;;5.07;;
32475;SDS011;18929;48.008;10.882;2022-07-23T00:57:26;14.40;;;6.13;;
32475;SDS011;18929;48.008;10.882;2022-07-23T00:59:53;11.10;;;5.25;;
32475;SDS011;18929;48.008;10.882;2022-07-23T01:02:21;10.10;;;5.60;;
32475;SDS011;18929;48.008;10.882;2022-07-23T01:04:48;10.48;;;5.75;;
32475;SDS011;18929;48.008;10.882;2022-07-23T01:07:15;9.90;;;5.40;;
32475;SDS011;18929;48.008;10.882;2022-07-23T01:09:43;13.05;;;6.60;;
32475;SDS011;18929;48.008;10.882;2022-07-23T01:12:11;14.35;;;7.60;;
32475;SDS011;18929;48.008;10.882;2022-07-23T01:14:38;14.45;;;5.90;;
32475;SDS011;18929;48.008;10.882;2022-07-23T01:28:13;8.13;;;4.90;;
32475;SDS011;18929;48.008;10.882;2022-07-23T01:30:42;7.05;;;4.28;;
32475;SDS011;18929;48.008;10.882;2022-07-23T01:35:47;7.43;;;4.80;;
32475;SDS011;18929;48.008;10.882;2022-07-23T01:38:15;6.50;;;3.88;;
32475;SDS011;18929;48.008;10.882;2022-07-23T01:40:42;8.98;;;4.32;;
32475;SDS011;18929;48.008;10.882;2022-07-23T01:43:09;6.55;;;4.68;;
32475;SDS011;18929;48.008;10.882;2022-07-23T01:45:36;6.22;;;4.05;;
32475;SDS011;18929;48.008;10.882;2022-07-23T01:48:04;6.82;;;3.70;;
32475;SDS011;18929;48.008;10.882;2022-07-23T01:50:32;4.90;;;3.65;;
32475;SDS011;18929;48.008;10.882;2022-07-23T01:52:59;5.65;;;3.63;;
32475;SDS011;18929;48.008;10.882;2022-07-23T01:55:27;5.85;;;3.80;;
32475;SDS011;18929;48.008;10.882;2022-07-23T01:57:54;7.78;;;3.53;;
32475;SDS011;18929;48.008;10.882;2022-07-23T02:00:21;5.95;;;3.58;;
32475;SDS011;18929;48.008;10.882;2022-07-23T02:02:48;6.82;;;4.18;;
32475;SDS011;18929;48.008;10.882;2022-07-23T02:05:15;5.68;;;3.40;;
32475;SDS011;18929;48.008;10.882;2022-07-23T02:07:42;8.75;;;3.38;;
32475;SDS011;18929;48.008;10.882;2022-07-23T02:10:09;6.45;;;3.65;;
32475;SDS011;18929;48.008;10.882;2022-07-23T02:12:37;6.00;;;3.65;;
32475;SDS011;18929;48.008;10.882;2022-07-23T02:15:06;6.32;;;3.90;;
32475;SDS011;18929;48.008;10.882;2022-07-23T02:17:33;5.43;;;3.67;;
32475;SDS011;18929;48.008;10.882;2022-07-23T02:20:01;9.57;;;4.53;;
32475;SDS011;18929;48.008;10.882;2022-07-23T02:22:28;5.63;;;3.85;;
32475;SDS011;18929;48.008;10.882;2022-07-23T02:24:55;5.57;;;3.55;;
32475;SDS011;18929;48.008;10.882;2022-07-23T02:27:22;7.43;;;3.90;;
32475;SDS011;18929;48.008;10.882;2022-07-23T02:29:50;5.28;;;3.70;;
32475;SDS011;18929;48.008;10.882;2022-07-23T02:32:17;6.80;;;4.28;;
32475;SDS011;18929;48.008;10.882;2022-07-23T02:34:46;8.10;;;4.68;;
32475;SDS011;18929;48.008;10.882;2022-07-23T02:37:13;6.70;;;4.10;;
32475;SDS011;18929;48.008;10.882;2022-07-23T02:39:40;6.38;;;4.32;;
32475;SDS011;18929;48.008;10.882;2022-07-23T02:42:07;6.68;;;4.45;;
32475;SDS011;18929;48.008;10.882;2022-07-23T02:44:34;9.95;;;6.15;;
32475;SDS011;18929;48.008;10.882;2022-07-23T02:47:02;11.00;;;5.72;;
32475;SDS011;18929;48.008;10.882;2022-07-23T02:49:29;9.38;;;5.10;;
32475;SDS011;18929;48.008;10.882;2022-07-23T02:51:56;9.82;;;5.40;;
32475;SDS011;18929;48.008;10.882;2022-07-23T02:54:23;8.57;;;4.50;;
32475;SDS011;18929;48.008;10.882;2022-07-23T02:56:51;8.85;;;4.50;;
32475;SDS011;18929;48.008;10.882;2022-07-23T02:59:18;7.25;;;4.60;;
32475;SDS011;18929;48.008;10.882;2022-07-23T03:01:45;7.55;;;4.70;;
32475;SDS011;18929;48.008;10.882;2022-07-23T03:04:13;6.50;;;4.35;;
32475;SDS011;18929;48.008;10.882;2022-07-23T03:06:41;6.10;;;4.85;;
32475;SDS011;18929;48.008;10.882;2022-07-23T03:09:08;7.85;;;6.30;;
32475;SDS011;18929;48.008;10.882;2022-07-23T03:11:35;7.45;;;5.78;;
32475;SDS011;18929;48.008;10.882;2022-07-23T03:14:02;6.88;;;4.50;;
32475;SDS011;18929;48.008;10.882;2022-07-23T03:16:29;5.88;;;4.47;;
32475;SDS011;18929;48.008;10.882;2022-07-23T03:18:56;9.45;;;5.97;;
32475;SDS011;18929;48.008;10.882;2022-07-23T03:21:24;10.13;;;5.35;;
32475;SDS011;18929;48.008;10.882;2022-07-23T03:23:51;6.20;;;4.85;;
32475;SDS011;18929;48.008;10.882;2022-07-23T03:26:18;8.10;;;5.80;;
32475;SDS011;18929;48.008;10.882;2022-07-23T03:28:45;7.80;;;4.57;;
32475;SDS011;18929;48.008;10.882;2022-07-23T03:31:12;7.25;;;4.88;;
32475;SDS011;18929;48.008;10.882;2022-07-23T03:33:39;9.90;;;5.03;;
32475;SDS011;18929;48.008;10.882;2022-07-23T03:36:07;8.45;;;4.70;;
32475;SDS011;18929;48.008;10.882;2022-07-23T03:38:36;6.03;;;4.85;;
32475;SDS011;18929;48.008;10.882;2022-07-23T03:41:03;6.45;;;4.63;;
32475;SDS011;18929;48.008;10.882;2022-07-23T03:43:31;7.18;;;5.30;;
32475;SDS011;18929;48.008;10.882;2022-07-23T03:45:58;6.70;;;4.72;;
32475;SDS011;18929;48.008;10.882;2022-07-23T03:48:25;7.55;;;5.00;;
32475;SDS011;18929;48.008;10.882;2022-07-23T03:50:52;10.07;;;5.97;;
32475;SDS011;18929;48.008;10.882;2022-07-23T03:53:19;11.82;;;6.65;;
32475;SDS011;18929;48.008;10.882;2022-07-23T03:55:47;9.93;;;4.97;;
32475;SDS011;18929;48.008;10.882;2022-07-23T03:58:14;6.55;;;4.78;;
32475;SDS011;18929;48.008;10.882;2022-07-23T04:00:41;8.35;;;5.18;;
32475;SDS011;18929;48.008;10.882;2022-07-23T04:03:08;8.55;;;4.97;;
32475;SDS011;18929;48.008;10.882;2022-07-23T04:05:35;9.15;;;5.75;;
32475;SDS011;18929;48.008;10.882;2022-07-23T04:08:03;7.32;;;4.90;;
32475;SDS011;18929;48.008;10.882;2022-07-23T04:10:30;8.77;;;4.85;;
32475;SDS011;18929;48.008;10.882;2022-07-23T04:12:59;9.50;;;5.30;;
32475;SDS011;18929;48.008;10.882;2022-07-23T04:15:26;8.20;;;4.72;;
32475;SDS011;18929;48.008;10.882;2022-07-23T04:17:53;9.95;;;5.40;;
32475;SDS011;18929;48.008;10.882;2022-07-23T04:20:20;11.05;;;5.32;;
32475;SDS011;18929;48.008;10.882;2022-07-23T04:22:47;8.98;;;5.10;;
32475;SDS011;18929;48.008;10.882;2022-07-23T04:25:15;10.05;;;5.25;;
32475;SDS011;18929;48.008;10.882;2022-07-23T04:27:42;9.77;;;5.60;;
32475;SDS011;18929;48.008;10.882;2022-07-23T04:30:11;6.97;;;5.10;;
32475;SDS011;18929;48.008;10.882;2022-07-23T04:32:38;9.18;;;5.40;;
32475;SDS011;18929;48.008;10.882;2022-07-23T04:35:06;6.55;;;5.18;;
32475;SDS011;18929;48.008;10.882;2022-07-23T04:37:34;9.02;;;4.93;;
32475;SDS011;18929;48.008;10.882;2022-07-23T04:40:01;6.43;;;4.90;;
32475;SDS011;18929;48.008;10.882;2022-07-23T04:42:29;8.60;;;5.53;;
32475;SDS011;18929;48.008;10.882;2022-07-23T04:44:56;9.75;;;5.10;;
32475;SDS011;18929;48.008;10.882;2022-07-23T04:47:25;9.82;;;5.88;;
32475;SDS011;18929;48.008;10.882;2022-07-23T04:49:52;7.07;;;4.88;;
32475;SDS011;18929;48.008;10.882;2022-07-23T04:52:19;9.02;;;5.32;;
32475;SDS011;18929;48.008;10.882;2022-07-23T04:54:47;7.05;;;5.13;;
32475;SDS011;18929;48.008;10.882;2022-07-23T04:57:14;8.75;;;5.00;;
32475;SDS011;18929;48.008;10.882;2022-07-23T04:59:42;8.25;;;4.63;;
32475;SDS011;18929;48.008;10.882;2022-07-23T05:02:09;6.05;;;4.28;;
32475;SDS011;18929;48.008;10.882;2022-07-23T05:04:38;8.18;;;4.93;;
32475;SDS011;18929;48.008;10.882;2022-07-23T05:07:06;10.02;;;5.30;;
32475;SDS011;18929;48.008;10.882;2022-07-23T05:09:33;5.50;;;4.45;;
32475;SDS011;18929;48.008;10.882;2022-07-23T05:12:02;7.60;;;5.00;;
32475;SDS011;18929;48.008;10.882;2022-07-23T05:14:30;8.85;;;6.18;;
32475;SDS011;18929;48.008;10.882;2022-07-23T05:17:11;9.43;;;7.13;;
32475;SDS011;18929;48.008;10.882;2022-07-23T05:19:41;10.85;;;7.07;;
32475;SDS011;18929;48.008;10.882;2022-07-23T05:22:08;6.05;;;5.22;;
32475;SDS011;18929;48.008;10.882;2022-07-23T05:24:35;13.82;;;9.20;;
32475;SDS011;18929;48.008;10.882;2022-07-23T05:27:02;10.95;;;6.70;;
32475;SDS011;18929;48.008;10.882;2022-07-23T05:29:29;9.02;;;5.63;;
32475;SDS011;18929;48.008;10.882;2022-07-23T05:31:57;7.88;;;5.40;;
32475;SDS011;18929;48.008;10.882;2022-07-23T05:34:24;6.78;;;5.10;;
32475;SDS011;18929;48.008;10.882;2022-07-23T05:36:53;6.50;;;5.22;;
32475;SDS011;18929;48.008;10.882;2022-07-23T05:39:20;7.05;;;5.20;;
32475;SDS011;18929;48.008;10.882;2022-07-23T05:41:48;5.97;;;4.65;;
32475;SDS011;18929;48.008;10.882;2022-07-23T05:44:16;7.68;;;5.10;;
32475;SDS011;18929;48.008;10.882;2022-07-23T05:46:43;8.82;;;5.68;;
32475;SDS011;18929;48.008;10.882;2022-07-23T05:49:11;9.70;;;5.60;;
32475;SDS011;18929;48.008;10.882;2022-07-23T05:51:38;9.43;;;5.65;;
32475;SDS011;18929;48.008;10.882;2022-07-23T05:54:07;14.90;;;7.00;;
32475;SDS011;18929;48.008;10.882;2022-07-23T05:56:34;10.32;;;6.22;;
32475;SDS011;18929;48.008;10.882;2022-07-23T06:02:49;9.32;;;5.72;;
32475;SDS011;18929;48.008;10.882;2022-07-23T06:05:16;11.88;;;8.43;;
32475;SDS011;18929;48.008;10.882;2022-07-23T06:07:44;8.80;;;5.78;;
32475;SDS011;18929;48.008;10.882;2022-07-23T06:10:13;13.77;;;6.93;;
32475;SDS011;18929;48.008;10.882;2022-07-23T06:12:41;11.02;;;8.13;;
32475;SDS011;18929;48.008;10.882;2022-07-23T06:15:09;9.38;;;6.28;;
32475;SDS011;18929;48.008;10.882;2022-07-23T06:17:37;9.13;;;6.95;;
32475;SDS011;18929;48.008;10.882;2022-07-23T06:20:06;10.57;;;8.52;;
32475;SDS011;18929;48.008;10.882;2022-07-23T06:22:34;7.05;;;5.70;;
32475;SDS011;18929;48.008;10.882;2022-07-23T06:25:02;7.95;;;6.30;;
32475;SDS011;18929;48.008;10.882;2022-07-23T06:27:36;12.93;;;8.48;;
32475;SDS011;18929;48.008;10.882;2022-07-23T06:30:06;11.70;;;7.22;;
32475;SDS011;18929;48.008;10.882;2022-07-23T06:32:43;12.38;;;7.90;;
32475;SDS011;18929;48.008;10.882;2022-07-23T09:00:28;6.80;;;5.25;;
32475;SDS011;18929;48.008;10.882;2022-07-23T09:02:55;7.38;;;5.53;;
32475;SDS011;18929;48.008;10.882;2022-07-23T09:05:23;8.23;;;6.20;;
32475;SDS011;18929;48.008;10.882;2022-07-23T09:10:43;7.15;;;5.18;;
32475;SDS011;18929;48.008;10.882;2022-07-23T09:16:09;6.63;;;4.75;;
32475;SDS011;18929;48.008;10.882;2022-07-23T09:18:39;8.02;;;4.97;;
32475;SDS011;18929;48.008;10.882;2022-07-23T09:23:57;6.82;;;5.20;;
32475;SDS011;18929;48.008;10.882;2022-07-23T09:26:33;5.28;;;4.53;;
32475;SDS011;18929;48.008;10.882;2022-07-23T09:29:08;7.47;;;5.45;;
32475;SDS011;18929;48.008;10.882;2022-07-23T09:31:44;8.13;;;5.55;;
32475;SDS011;18929;48.008;10.882;2022-07-23T09:34:15;6.85;;;4.93;;
32475;SDS011;18929;48.008;10.882;2022-07-23T09:36:44;7.63;;;5.00;;
32475;SDS011;18929;48.008;10.882;2022-07-23T09:39:12;7.30;;;5.13;;
32475;SDS011;18929;48.008;10.882;2022-07-23T09:41:42;9.43;;;5.18;;
32475;SDS011;18929;48.008;10.882;2022-07-23T09:44:11;6.15;;;4.80;;
32475;SDS011;18929;48.008;10.882;2022-07-23T09:46:41;6.18;;;4.75;;
32475;SDS011;18929;48.008;10.882;2022-07-23T09:49:11;6.20;;;4.70;;
32475;SDS011;18929;48.008;10.882;2022-07-23T09:51:43;7.38;;;5.43;;
32475;SDS011;18929;48.008;10.882;2022-07-23T09:54:20;6.63;;;5.40;;
32475;SDS011;18929;48.008;10.882;2022-07-23T09:56:53;7.43;;;5.25;;
32475;SDS011;18929;48.008;10.882;2022-07-23T09:59:22;9.38;;;5.50;;
32475;SDS011;18929;48.008;10.882;2022-07-23T10:01:52;7.22;;;5.80;;
32475;SDS011;18929;48.008;10.882;2022-07-23T10:04:23;8.13;;;6.07;;
32475;SDS011;18929;48.008;10.882;2022-07-23T10:06:51;9.55;;;6.35;;
32475;SDS011;18929;48.008;10.882;2022-07-23T10:09:22;7.82;;;6.10;;
32475;SDS011;18929;48.008;10.882;2022-07-23T10:14:22;9.00;;;6.40;;
32475;SDS011;18929;48.008;10.882;2022-07-23T10:16:48;7.35;;;6.18;;
32475;SDS011;18929;48.008;10.882;2022-07-23T10:19:16;9.05;;;6.75;;
32475;SDS011;18929;48.008;10.882;2022-07-23T10:21:46;10.27;;;6.88;;
32475;SDS011;18929;48.008;10.882;2022-07-23T10:24:17;7.50;;;5.80;;
32475;SDS011;18929;48.008;10.882;2022-07-23T10:26:58;8.77;;;5.95;;
32475;SDS011;18929;48.008;10.882;2022-07-23T10:29:40;8.20;;;6.13;;
32475;SDS011;18929;48.008;10.882;2022-07-23T10:32:17;7.28;;;5.80;;
32475;SDS011;18929;48.008;10.882;2022-07-23T10:34:55;6.93;;;5.97;;
32475;SDS011;18929;48.008;10.882;2022-07-23T10:37:32;8.43;;;5.38;;
32475;SDS011;18929;48.008;10.882;2022-07-23T10:40:08;7.55;;;5.55;;
32475;SDS011;18929;48.008;10.882;2022-07-23T10:42:37;7.20;;;5.22;;
32475;SDS011;18929;48.008;10.882;2022-07-23T10:47:53;7.15;;;5.85;;
32475;SDS011;18929;48.008;10.882;2022-07-23T10:53:53;7.23;;;5.63;;
32475;SDS011;18929;48.008;10.882;2022-07-23T10:59:15;7.93;;;5.72;;
32475;SDS011;18929;48.008;10.882;2022-07-23T11:01:43;7.88;;;5.50;;
32475;SDS011;18929;48.008;10.882;2022-07-23T11:04:10;6.90;;;5.78;;
32475;SDS011;18929;48.008;10.882;2022-07-23T11:12:31;9.15;;;6.05;;
32475;SDS011;18929;48.008;10.882;2022-07-23T11:15:04;10.02;;;6.05;;
32475;SDS011;18929;48.008;10.882;2022-07-23T11:17:34;8.15;;;5.90;;
32475;SDS011;18929;48.008;10.882;2022-07-23T11:20:18;7.97;;;6.03;;
32475;SDS011;18929;48.008;10.882;2022-07-23T11:22:47;9.65;;;6.00;;
32475;SDS011;18929;48.008;10.882;2022-07-23T11:25:31;6.93;;;5.38;;
32475;SDS011;18929;48.008;10.882;2022-07-23T11:28:11;6.40;;;5.40;;
32475;SDS011;18929;48.008;10.882;2022-07-23T11:30:42;7.95;;;5.80;;
32475;SDS011;18929;48.008;10.882;2022-07-23T11:33:17;6.45;;;5.78;;
32475;SDS011;18929;48.008;10.882;2022-07-23T11:35:46;9.63;;;5.97;;
32475;SDS011;18929;48.008;10.882;2022-07-23T11:38:17;8.38;;;5.78;;
32475;SDS011;18929;48.008;10.882;2022-07-23T11:40:48;9.30;;;5.75;;
32475;SDS011;18929;48.008;10.882;2022-07-23T11:43:17;9.03;;;5.83;;
32475;SDS011;18929;48.008;10.882;2022-07-23T11:45:45;7.00;;;5.63;;
32475;SDS011;18929;48.008;10.882;2022-07-23T11:48:17;6.88;;;5.25;;
32475;SDS011;18929;48.008;10.882;2022-07-23T11:50:45;8.50;;;6.05;;
32475;SDS011;18929;48.008;10.882;2022-07-23T11:53:12;9.25;;;6.00;;
32475;SDS011;18929;48.008;10.882;2022-07-23T11:55:40;6.80;;;5.65;;
32475;SDS011;18929;48.008;10.882;2022-07-23T11:58:08;7.00;;;5.55;;
32475;SDS011;18929;48.008;10.882;2022-07-23T12:00:35;7.53;;;6.30;;
32475;SDS011;18929;48.008;10.882;2022-07-23T12:03:06;7.82;;;5.22;;
32475;SDS011;18929;48.008;10.882;2022-07-23T12:05:37;8.23;;;5.30;;
32475;SDS011;18929;48.008;10.882;2022-07-23T12:08:05;8.15;;;5.68;;
32475;SDS011;18929;48.008;10.882;2022-07-23T12:10:39;7.55;;;5.72;;
32475;SDS011;18929;48.008;10.882;2022-07-23T12:13:21;8.23;;;5.70;;
32475;SDS011;18929;48.008;10.882;2022-07-23T12:15:50;7.97;;;5.45;;
32475;SDS011;18929;48.008;10.882;2022-07-23T12:18:18;8.15;;;5.55;;
32475;SDS011;18929;48.008;10.882;2022-07-23T12:20:49;7.88;;;5.85;;
32475;SDS011;18929;48.008;10.882;2022-07-23T12:23:18;8.43;;;5.53;;
32475;SDS011;18929;48.008;10.882;2022-07-23T12:25:48;9.05;;;5.47;;
32475;SDS011;18929;48.008;10.882;2022-07-23T12:28:16;8.60;;;5.50;;
32475;SDS011;18929;48.008;10.882;2022-07-23T12:30:46;6.90;;;5.30;;
32475;SDS011;18929;48.008;10.882;2022-07-23T12:33:18;6.45;;;5.18;;
32475;SDS011;18929;48.008;10.882;2022-07-23T12:35:48;9.60;;;5.53;;
32475;SDS011;18929;48.008;10.882;2022-07-23T12:38:16;6.32;;;5.53;;
32475;SDS011;18929;48.008;10.882;2022-07-23T12:40:45;7.05;;;5.68;;
32475;SDS011;18929;48.008;10.882;2022-07-23T12:43:18;8.02;;;5.97;;
32475;SDS011;18929;48.008;10.882;2022-07-23T12:45:49;7.30;;;5.28;;
32475;SDS011;18929;48.008;10.882;2022-07-23T12:48:18;8.35;;;5.30;;
32475;SDS011;18929;48.008;10.882;2022-07-23T12:50:59;7.47;;;5.40;;
32475;SDS011;18929;48.008;10.882;2022-07-23T12:57:17;7.40;;;5.32;;
32475;SDS011;18929;48.008;10.882;2022-07-23T12:59:45;10.65;;;6.85;;
32475;SDS011;18929;48.008;10.882;2022-07-23T13:06:09;8.10;;;6.00;;
32475;SDS011;18929;48.008;10.882;2022-07-23T13:08:38;8.18;;;5.55;;
32475;SDS011;18929;48.008;10.882;2022-07-23T13:11:21;7.78;;;5.60;;
32475;SDS011;18929;48.008;10.882;2022-07-23T13:13:50;7.85;;;5.60;;
32475;SDS011;18929;48.008;10.882;2022-07-23T13:16:23;7.43;;;5.60;;
32475;SDS011;18929;48.008;10.882;2022-07-23T13:18:53;8.80;;;5.78;;
32475;SDS011;18929;48.008;10.882;2022-07-23T13:21:24;12.47;;;6.73;;
32475;SDS011;18929;48.008;10.882;2022-07-23T13:23:55;6.28;;;5.30;;
32475;SDS011;18929;48.008;10.882;2022-07-23T13:26:29;8.48;;;5.82;;
32475;SDS011;18929;48.008;10.882;2022-07-23T13:28:56;8.52;;;5.93;;
32475;SDS011;18929;48.008;10.882;2022-07-23T13:31:36;7.70;;;5.50;;
32475;SDS011;18929;48.008;10.882;2022-07-23T13:34:11;7.63;;;6.10;;
32475;SDS011;18929;48.008;10.882;2022-07-23T13:36:52;9.18;;;6.25;;
32475;SDS011;18929;48.008;10.882;2022-07-23T13:39:33;7.03;;;5.65;;
32475;SDS011;18929;48.008;10.882;2022-07-23T13:44:53;10.32;;;6.22;;
32475;SDS011;18929;48.008;10.882;2022-07-23T13:47:24;10.73;;;6.32;;
32475;SDS011;18929;48.008;10.882;2022-07-23T13:49:58;12.45;;;6.40;;
32475;SDS011;18929;48.008;10.882;2022-07-23T13:52:28;12.82;;;7.38;;
32475;SDS011;18929;48.008;10.882;2022-07-23T13:55:03;13.30;;;6.93;;
32475;SDS011;18929;48.008;10.882;2022-07-23T13:57:34;11.02;;;7.03;;
32475;SDS011;18929;48.008;10.882;2022-07-23T14:00:02;8.50;;;6.10;;
32475;SDS011;18929;48.008;10.882;2022-07-23T14:02:33;8.98;;;6.05;;
32475;SDS011;18929;48.008;10.882;2022-07-23T14:05:02;9.23;;;6.53;;
32475;SDS011;18929;48.008;10.882;2022-07-23T14:07:31;9.30;;;5.90;;
32475;SDS011;18929;48.008;10.882;2022-07-23T14:09:58;8.88;;;6.20;;
32475;SDS011;18929;48.008;10.882;2022-07-23T14:12:25;6.88;;;5.32;;
32475;SDS011;18929;48.008;10.882;2022-07-23T14:14:52;9.25;;;5.60;;
32475;SDS011;18929;48.008;10.882;2022-07-23T14:17:21;7.60;;;5.90;;
32475;SDS011;18929;48.008;10.882;2022-07-23T14:19:48;8.77;;;5.75;;
32475;SDS011;18929;48.008;10.882;2022-07-23T14:22:15;6.88;;;5.60;;
32475;SDS011;18929;48.008;10.882;2022-07-23T14:24:43;8.95;;;6.07;;
32475;SDS011;18929;48.008;10.882;2022-07-23T14:27:11;7.50;;;5.40;;
32475;SDS011;18929;48.008;10.882;2022-07-23T14:29:38;8.88;;;5.70;;
32475;SDS011;18929;48.008;10.882;2022-07-23T14:32:05;10.70;;;5.97;;
32475;SDS011;18929;48.008;10.882;2022-07-23T14:34:32;8.90;;;5.95;;
32475;SDS011;18929;48.008;10.882;2022-07-23T14:37:00;8.57;;;5.88;;
32475;SDS011;18929;48.008;10.882;2022-07-23T14:39:27;9.00;;;6.22;;
32475;SDS011;18929;48.008;10.882;2022-07-23T14:41:56;8.23;;;6.05;;
32475;SDS011;18929;48.008;10.882;2022-07-23T14:44:23;9.88;;;6.18;;
32475;SDS011;18929;48.008;10.882;2022-07-23T14:46:50;8.73;;;6.35;;
32475;SDS011;18929;48.008;10.882;2022-07-23T14:49:17;9.15;;;7.13;;
32475;SDS011;18929;48.008;10.882;2022-07-23T14:51:44;9.77;;;6.00;;
32475;SDS011;18929;48.008;10.882;2022-07-23T14:54:11;7.18;;;5.97;;
32475;SDS011;18929;48.008;10.882;2022-07-23T14:56:39;8.55;;;6.28;;
32475;SDS011;18929;48.008;10.882;2022-07-23T14:59:07;7.57;;;6.00;;
32475;SDS011;18929;48.008;10.882;2022-07-23T15:01:35;8.15;;;6.30;;
32475;SDS011;18929;48.008;10.882;2022-07-23T15:04:03;7.35;;;6.38;;
32475;SDS011;18929;48.008;10.882;2022-07-23T15:06:31;10.50;;;6.22;;
32475;SDS011;18929;48.008;10.882;2022-07-23T15:08:58;7.80;;;6.70;;
32475;SDS011;18929;48.008;10.882;2022-07-23T15:11:25;7.70;;;5.88;;
32475;SDS011;18929;48.008;10.882;2022-07-23T15:13:54;9.55;;;6.88;;
32475;SDS011;18929;48.008;10.882;2022-07-23T15:16:22;7.50;;;6.22;;
32475;SDS011;18929;48.008;10.882;2022-07-23T15:18:49;7.55;;;6.40;;
32475;SDS011;18929;48.008;10.882;2022-07-23T15:21:16;9.40;;;6.85;;
32475;SDS011;18929;48.008;10.882;2022-07-23T15:23:43;8.80;;;6.75;;
32475;SDS011;18929;48.008;10.882;2022-07-23T15:26:11;7.15;;;6.18;;
32475;SDS011;18929;48.008;10.882;2022-07-23T15:28:40;8.43;;;6.75;;
32475;SDS011;18929;48.008;10.882;2022-07-23T15:31:07;7.80;;;6.88;;
32475;SDS011;18929;48.008;10.882;2022-07-23T15:33:36;8.70;;;6.70;;
32475;SDS011;18929;48.008;10.882;2022-07-23T15:36:05;8.10;;;6.78;;
32475;SDS011;18929;48.008;10.882;2022-07-23T15:38:33;9.80;;;7.93;;
